Time;durP1;ratioP1;P1;durP2;ratioP2;P2;SDS_P1;SDS_P2;PMS_P1;PMS_P2;Temp;Humidity;BMP_temperature;BMP_pressure;BME280_temperature;BME280_humidity;BME280_pressure;Samples;Min_cycle;Max_cycle;Signal;HPM_P1;HPM_P2
2023/08/11 00:01:39;;;;;;;1999.90;999.90;;;19.90;99.90;;;;;;5036347;28;20029;-71
2023/08/11 00:04:06;;;;;;;1999.90;999.90;;;19.90;99.90;;;;;;5018554;28;20022;-71
2023/08/11 00:06:32;;;;;;;1999.90;999.90;;;19.90;99.90;;;;;;5036469;28;20031;-71
2023/08/11 00:08:59;;;;;;;1999.90;999.90;;;19.90;99.90;;;;;;5035923;28;20431;-71
2023/08/11 00:11:25;;;;;;;1999.90;999.90;;;19.90;99.90;;;;;;5037763;28;20021;-76
2023/08/11 00:13:51;;;;;;;1999.90;999.90;;;19.90;99.90;;;;;;5025893;28;20025;-76
2023/08/11 00:16:18;;;;;;;1999.90;999.90;;;19.90;99.90;;;;;;5036308;28;20022;-71
2023/08/11 00:18:44;;;;;;;1999.90;999.90;;;19.90;99.90;;;;;;5036300;28;20400;-71
2023/08/11 00:21:09;;;;;;;1999.90;999.90;;;19.80;99.90;;;;;;5016855;28;20040;-71
2023/08/11 00:23:39;;;;;;;1999.90;999.90;;;19.80;99.90;;;;;;5035674;28;20034;-71
2023/08/11 00:26:05;;;;;;;1999.90;999.90;;;19.80;99.90;;;;;;5035278;28;20053;-76
2023/08/11 00:28:31;;;;;;;1999.90;999.90;;;19.80;99.90;;;;;;5034857;28;20151;-71
2023/08/11 00:30:57;;;;;;;1999.90;999.90;;;19.80;99.90;;;;;;5017992;28;20033;-71
2023/08/11 00:33:23;;;;;;;1999.90;999.90;;;19.80;99.90;;;;;;5035744;28;20025;-71
2023/08/11 00:35:49;;;;;;;1999.90;999.90;;;19.70;99.90;;;;;;5035569;28;20025;-71
2023/08/11 00:38:14;;;;;;;1999.90;999.90;;;19.80;99.90;;;;;;5036032;28;20052;-71
2023/08/11 00:40:40;;;;;;;1999.90;999.90;;;19.80;99.90;;;;;;5035762;28;20403;-71
2023/08/11 00:43:05;;;;;;;1999.90;999.90;;;19.80;99.90;;;;;;5046071;28;20103;-71
2023/08/11 00:45:31;;;;;;;1999.90;999.90;;;19.80;99.90;;;;;;5035497;28;20092;-71
2023/08/11 00:47:57;;;;;;;1999.90;999.90;;;19.80;99.90;;;;;;5017725;28;20476;-71
2023/08/11 00:50:23;;;;;;;1999.90;999.90;;;19.70;99.90;;;;;;5035626;28;20488;-76
2023/08/11 00:52:50;;;;;;;1999.90;999.90;;;19.70;99.90;;;;;;5035528;28;20485;-71
2023/08/11 00:55:18;;;;;;;1999.90;999.90;;;19.70;99.90;;;;;;5035288;28;20515;-72
2023/08/11 00:57:45;;;;;;;1999.90;999.90;;;19.70;99.90;;;;;;5017499;28;20025;-71
2023/08/11 01:00:13;;;;;;;1999.90;999.90;;;19.70;99.90;;;;;;5035149;28;20480;-71
2023/08/11 01:02:42;;;;;;;1999.90;999.90;;;19.70;99.90;;;;;;5035563;28;20022;-71
2023/08/11 01:05:12;;;;;;;1999.90;999.90;;;19.70;99.90;;;;;;5035235;28;20105;-76
2023/08/11 01:07:56;;;;;;;1999.90;999.90;;;19.80;99.90;;;;;;5034919;28;20029;-71
2023/08/11 01:10:40;;;;;;;1999.90;999.90;;;19.70;99.90;;;;;;5034785;28;20028;-71
2023/08/11 01:13:17;;;;;;;1999.90;999.90;;;19.70;99.90;;;;;;5034937;28;20021;-71
2023/08/11 01:15:56;;;;;;;1999.90;999.90;;;19.70;99.90;;;;;;5035304;28;20075;-71
2023/08/11 01:18:23;;;;;;;1999.90;999.90;;;19.80;99.90;;;;;;5035330;28;20034;-76
2023/08/11 01:20:52;;;;;;;1999.90;999.90;;;19.70;99.90;;;;;;5034870;28;20076;-71
2023/08/11 01:23:20;;;;;;;1999.90;999.90;;;19.70;99.90;;;;;;5034846;28;20060;-71
2023/08/11 01:25:51;;;;;;;1999.90;999.90;;;19.70;99.90;;;;;;5033924;28;20034;-71
2023/08/11 01:28:17;;;;;;;1999.90;999.90;;;19.60;99.90;;;;;;5030192;28;20047;-71
2023/08/11 01:30:43;;;;;;;1999.90;999.90;;;19.70;99.90;;;;;;5034302;28;20044;-76
2023/08/11 01:33:09;;;;;;;1999.90;999.90;;;19.60;99.90;;;;;;5016915;28;20021;-71
2023/08/11 01:35:34;;;;;;;1999.90;999.90;;;19.50;99.90;;;;;;5034790;28;20021;-71
2023/08/11 01:38:00;;;;;;;1999.90;999.90;;;19.60;99.90;;;;;;5016600;28;20030;-71
2023/08/11 01:40:26;;;;;;;1999.90;999.90;;;19.60;99.90;;;;;;5034639;28;20107;-71
2023/08/11 01:42:54;;;;;;;1999.90;999.90;;;19.70;99.90;;;;;;5034630;28;20396;-76
2023/08/11 01:45:21;;;;;;;1999.90;999.90;;;19.70;99.90;;;;;;5034292;28;20029;-71
2023/08/11 01:47:48;;;;;;;1999.90;999.90;;;19.60;99.90;;;;;;5016464;28;20021;-71
2023/08/11 01:50:16;;;;;;;1999.90;999.90;;;19.60;99.90;;;;;;5034075;28;20471;-71
2023/08/11 01:52:45;;;;;;;1999.90;999.90;;;19.60;99.90;;;;;;5034493;28;20388;-71
2023/08/11 01:55:12;;;;;;;1999.90;999.90;;;19.60;99.90;;;;;;5034333;28;20028;-76
2023/08/11 01:57:38;;;;;;;1999.90;999.90;;;19.50;99.90;;;;;;5034066;28;20526;-71
2023/08/11 02:00:16;;;;;;;1999.90;999.90;;;19.60;99.90;;;;;;5033820;28;20029;-71
2023/08/11 02:02:43;;;;;;;1999.90;999.90;;;19.50;99.90;;;;;;5033804;28;20026;-71
2023/08/11 02:05:11;;;;;;;1999.90;999.90;;;19.50;99.90;;;;;;5047788;28;20032;-71
2023/08/11 02:07:37;;;;;;;1999.90;999.90;;;19.60;99.90;;;;;;5053788;28;20057;-75
2023/08/11 02:10:03;;;;;;;1999.90;999.90;;;19.60;99.90;;;;;;5032312;28;20021;-71
2023/08/11 02:12:30;;;;;;;1999.90;999.90;;;19.60;99.90;;;;;;5036309;28;20512;-71
2023/08/11 02:14:55;;;;;;;1999.90;999.90;;;19.50;99.90;;;;;;5016131;28;20049;-71
2023/08/11 02:17:21;;;;;;;1999.90;999.90;;;19.50;99.90;;;;;;5034036;28;20440;-71
2023/08/11 02:19:47;;;;;;;1999.90;999.90;;;19.50;99.90;;;;;;5033895;28;20061;-71
2023/08/11 02:22:13;;;;;;;1999.90;999.90;;;19.50;99.90;;;;;;5033629;28;20053;-71
2023/08/11 02:24:38;;;;;;;1999.90;999.90;;;19.50;99.90;;;;;;5033337;28;20029;-71
2023/08/11 02:27:04;;;;;;;1999.90;999.90;;;19.60;99.90;;;;;;5033092;28;20025;-71
2023/08/11 02:29:30;;;;;;;1999.90;999.90;;;19.60;99.90;;;;;;5032790;28;20101;-71
2023/08/11 02:31:55;;;;;;;1999.90;999.90;;;19.60;99.90;;;;;;5033545;28;20021;-71
2023/08/11 02:34:21;;;;;;;1999.90;999.90;;;19.60;99.90;;;;;;5033534;28;20026;-71
2023/08/11 02:36:47;;;;;;;1999.90;999.90;;;19.60;99.90;;;;;;5033387;28;20025;-76
2023/08/11 02:39:13;;;;;;;1999.90;999.90;;;19.60;99.90;;;;;;5033711;28;20051;-71
2023/08/11 02:41:38;;;;;;;1999.90;999.90;;;19.60;99.90;;;;;;5033477;28;20504;-76
2023/08/11 02:44:04;;;;;;;1999.90;999.90;;;19.50;99.90;;;;;;5015560;28;20045;-71
2023/08/11 02:46:31;;;;;;;1999.90;999.90;;;19.50;99.90;;;;;;5033141;28;20380;-71
2023/08/11 02:48:57;;;;;;;1999.90;999.90;;;19.40;99.90;;;;;;5015531;28;20108;-71
2023/08/11 02:51:22;;;;;;;1999.90;999.90;;;19.40;99.90;;;;;;5033017;28;20109;-71
2023/08/11 02:53:48;;;;;;;1999.90;999.90;;;19.30;99.90;;;;;;5015527;28;20477;-71
2023/08/11 02:56:15;;;;;;;1999.90;999.90;;;19.20;99.90;;;;;;5033136;28;20018;-71
2023/08/11 02:58:44;;;;;;;1999.90;999.90;;;19.20;99.90;;;;;;5015206;28;20030;-71
2023/08/11 03:01:09;;;;;;;1999.90;999.90;;;19.20;99.90;;;;;;5033258;28;20075;-71
2023/08/11 03:03:35;;;;;;;1999.90;999.90;;;19.10;99.90;;;;;;5033021;28;20469;-76
2023/08/11 03:06:01;;;;;;;1999.90;999.90;;;19.10;99.90;;;;;;5032518;28;20021;-71
2023/08/11 03:08:27;;;;;;;1999.90;999.90;;;19.10;99.90;;;;;;5032177;28;20499;-76
2023/08/11 03:10:53;;;;;;;1999.90;999.90;;;19.10;99.90;;;;;;5032946;28;20025;-71
2023/08/11 03:13:20;;;;;;;1999.90;999.90;;;19.10;99.90;;;;;;5032928;28;20468;-76
2023/08/11 03:15:46;;;;;;;1999.90;999.90;;;19.10;99.90;;;;;;5015158;28;20026;-76
2023/08/11 03:18:11;;;;;;;1999.90;999.90;;;19.00;99.90;;;;;;5032823;28;20499;-71
2023/08/11 03:20:37;;;;;;;1999.90;999.90;;;19.00;99.90;;;;;;5031930;28;20033;-71
2023/08/11 03:23:04;;;;;;;1999.90;999.90;;;19.00;99.90;;;;;;5014993;28;20040;-71
2023/08/11 03:25:30;;;;;;;1999.90;999.90;;;19.00;99.90;;;;;;5032080;28;20032;-71
2023/08/11 03:27:56;;;;;;;1999.90;999.90;;;19.00;99.90;;;;;;5032455;28;20076;-71
2023/08/11 03:30:22;;;;;;;1999.90;999.90;;;19.10;99.90;;;;;;5013959;28;20031;-71
2023/08/11 03:32:48;;;;;;;1999.90;999.90;;;19.00;99.90;;;;;;5032650;28;20507;-71
2023/08/11 03:35:14;;;;;;;1999.90;999.90;;;19.00;99.90;;;;;;5015010;28;20064;-71
2023/08/11 03:37:40;;;;;;;1999.90;999.90;;;19.00;99.90;;;;;;5032550;28;20032;-71
2023/08/11 03:40:09;;;;;;;1999.90;999.90;;;19.00;99.90;;;;;;5032620;28;20045;-71
2023/08/11 03:42:35;;;;;;;1999.90;999.90;;;19.00;99.90;;;;;;5032825;28;20025;-71
2023/08/11 03:45:00;;;;;;;1999.90;999.90;;;19.10;99.90;;;;;;5035935;28;20060;-71
2023/08/11 03:47:26;;;;;;;1999.90;999.90;;;19.00;99.90;;;;;;5052515;28;20033;-71
2023/08/11 03:49:52;;;;;;;1999.90;999.90;;;19.00;99.90;;;;;;5052555;28;20068;-71
2023/08/11 03:52:17;;;;;;;1999.90;999.90;;;18.90;99.90;;;;;;5052418;28;20025;-71
2023/08/11 03:54:43;;;;;;;1999.90;999.90;;;18.90;99.90;;;;;;5052411;28;20075;-71
2023/08/11 03:57:09;;;;;;;1999.90;999.90;;;18.90;99.90;;;;;;5052461;28;20024;-71
2023/08/11 03:59:36;;;;;;;1999.90;999.90;;;19.00;99.90;;;;;;5052527;28;20498;-71
2023/08/11 04:02:01;;;;;;;1999.90;999.90;;;19.10;99.90;;;;;;5052535;28;20049;-71
2023/08/11 04:04:27;;;;;;;1999.90;999.90;;;19.10;99.90;;;;;;5052277;28;20049;-71
2023/08/11 04:06:52;;;;;;;1999.90;999.90;;;19.10;99.90;;;;;;5052248;28;20032;-71
2023/08/11 04:09:18;;;;;;;1999.90;999.90;;;19.00;99.90;;;;;;5052032;28;20400;-71
2023/08/11 04:11:44;;;;;;;1999.90;999.90;;;19.00;99.90;;;;;;5034764;28;20499;-71
2023/08/11 04:14:10;;;;;;;1999.90;999.90;;;18.90;99.90;;;;;;5031664;28;20029;-71
2023/08/11 04:16:36;;;;;;;1999.90;999.90;;;18.90;99.90;;;;;;5032334;28;20022;-71
2023/08/11 04:19:02;;;;;;;1999.90;999.90;;;18.90;99.90;;;;;;5014460;28;20029;-71
2023/08/11 04:21:28;;;;;;;1999.90;999.90;;;18.90;99.90;;;;;;5035116;28;20026;-75
2023/08/11 04:23:54;;;;;;;1999.90;999.90;;;19.00;99.90;;;;;;5017959;28;20083;-71
2023/08/11 04:26:19;;;;;;;1999.90;999.90;;;19.00;99.90;;;;;;5016919;28;20036;-71
2023/08/11 04:28:46;;;;;;;1999.90;999.90;;;19.00;99.90;;;;;;5016992;28;20034;-71
2023/08/11 04:31:13;;;;;;;1999.90;999.90;;;19.00;99.90;;;;;;5038822;28;20034;-75
2023/08/11 04:33:39;;;;;;;1999.90;999.90;;;18.90;99.90;;;;;;5038915;28;20025;-71
2023/08/11 04:36:04;;;;;;;1999.90;999.90;;;18.90;99.90;;;;;;5038230;28;20029;-71
2023/08/11 04:38:30;;;;;;;1999.90;999.90;;;18.80;99.90;;;;;;5036860;28;20018;-76
2023/08/11 04:40:57;;;;;;;1999.90;999.90;;;18.80;99.90;;;;;;5037224;28;20037;-76
2023/08/11 04:43:23;;;;;;;1999.90;999.90;;;18.80;99.90;;;;;;5036751;28;20405;-71
2023/08/11 04:45:49;;;;;;;1999.90;999.90;;;18.70;99.90;;;;;;5035535;28;20056;-76
2023/08/11 04:48:15;;;;;;;1999.90;999.90;;;18.70;99.90;;;;;;5035557;28;20527;-71
2023/08/11 04:50:41;;;;;;;1999.90;999.90;;;18.70;99.90;;;;;;5035431;28;20025;-71
2023/08/11 04:53:06;;;;;;;1999.90;999.90;;;18.80;99.90;;;;;;5017766;28;20476;-71
2023/08/11 04:55:33;;;;;;;1999.90;999.90;;;18.80;99.90;;;;;;5035258;28;20022;-71
2023/08/11 04:57:59;;;;;;;1999.90;999.90;;;18.70;99.90;;;;;;5035372;28;20031;-76
2023/08/11 05:00:25;;;;;;;1999.90;999.90;;;18.70;99.90;;;;;;5035437;28;20026;-76
2023/08/11 05:02:52;;;;;;;1999.90;999.90;;;18.70;99.90;;;;;;5035383;28;20018;-71
2023/08/11 05:05:19;;;;;;;1999.90;999.90;;;18.70;99.90;;;;;;5035098;28;20053;-71
2023/08/11 05:07:45;;;;;;;1999.90;999.90;;;18.70;99.90;;;;;;5035047;28;20018;-71
2023/08/11 05:10:11;;;;;;;1999.90;999.90;;;18.80;99.90;;;;;;5017225;28;20032;-75
2023/08/11 05:12:38;;;;;;;1999.90;999.90;;;18.80;99.90;;;;;;5035559;28;20021;-71
2023/08/11 05:15:05;;;;;;;1999.90;999.90;;;18.80;99.90;;;;;;5017345;28;20032;-71
2023/08/11 05:17:31;;;;;;;1999.90;999.90;;;18.70;99.90;;;;;;5034244;28;20100;-71
2023/08/11 05:19:57;;;;;;;1999.90;999.90;;;18.70;99.90;;;;;;5034736;28;20029;-71
2023/08/11 05:22:23;;;;;;;1999.90;999.90;;;18.70;99.90;;;;;;5017038;28;20025;-71
2023/08/11 05:24:48;;;;;;;1999.90;999.90;;;18.70;99.90;;;;;;5035980;28;20500;-76
2023/08/11 05:27:15;;;;;;;1999.90;999.90;;;18.70;99.90;;;;;;5047907;28;20112;-71
2023/08/11 05:29:45;;;;;;;1999.90;999.90;;;18.80;99.90;;;;;;5016068;28;20029;-71
2023/08/11 05:32:11;;;;;;;1999.90;999.90;;;18.80;99.90;;;;;;5015561;28;20048;-71
2023/08/11 05:34:36;;;;;;;1999.90;999.90;;;18.90;99.90;;;;;;5034498;28;20395;-71
2023/08/11 05:37:03;;;;;;;1999.90;999.90;;;18.90;99.90;;;;;;5033901;28;20032;-72
2023/08/11 05:39:29;;;;;;;1999.90;999.90;;;19.00;99.90;;;;;;5033534;28;20675;-71
2023/08/11 05:41:55;;;;;;;1999.90;999.90;;;19.00;99.90;;;;;;5036374;28;20108;-71
2023/08/11 05:44:20;;;;;;;1999.90;999.90;;;19.10;99.90;;;;;;5048230;28;20053;-71
2023/08/11 05:46:46;;;;;;;1999.90;999.90;;;19.10;99.90;;;;;;5034408;28;20034;-71
2023/08/11 05:49:12;;;;;;;1999.90;999.90;;;19.10;99.90;;;;;;5033922;28;20377;-71
2023/08/11 05:51:38;;;;;;;1999.90;999.90;;;19.10;99.90;;;;;;5034051;28;20037;-71
2023/08/11 05:54:03;;;;;;;1999.90;999.90;;;19.10;99.90;;;;;;5033212;28;20026;-71
2023/08/11 05:56:29;;;;;;;1999.90;999.90;;;19.20;99.90;;;;;;5032891;28;20384;-71
2023/08/11 05:58:55;;;;;;;1999.90;999.90;;;19.30;99.90;;;;;;5033000;28;20037;-71
2023/08/11 06:01:20;;;;;;;1999.90;999.90;;;19.30;99.90;;;;;;5032354;28;20060;-71
2023/08/11 06:03:46;;;;;;;1999.90;999.90;;;19.40;99.90;;;;;;5031854;28;20544;-75
2023/08/11 06:06:12;;;;;;;1999.90;999.90;;;19.50;99.90;;;;;;5032199;28;20036;-71
2023/08/11 06:08:38;;;;;;;1999.90;999.90;;;19.60;99.90;;;;;;5014407;28;20033;-71
2023/08/11 06:11:03;;;;;;;1999.90;999.90;;;19.60;99.90;;;;;;5020710;28;20216;-71
2023/08/11 06:13:29;;;;;;;1999.90;999.90;;;19.60;99.90;;;;;;5031957;28;20030;-71
2023/08/11 06:15:55;;;;;;;1999.90;999.90;;;19.80;99.90;;;;;;5006439;28;20029;-76
2023/08/11 06:18:20;;;;;;;1999.90;999.90;;;19.80;99.90;;;;;;5035314;28;20041;-75
2023/08/11 06:20:47;;;;;;;1999.90;999.90;;;19.90;99.90;;;;;;5013024;28;20025;-71
2023/08/11 06:23:13;;;;;;;1999.90;999.90;;;19.90;99.90;;;;;;5034555;28;20553;-71
2023/08/11 06:25:38;;;;;;;1999.90;999.90;;;19.80;99.90;;;;;;5030234;28;20038;-71
2023/08/11 06:28:04;;;;;;;1999.90;999.90;;;19.90;99.90;;;;;;5031048;28;20433;-71
2023/08/11 06:30:30;;;;;;;1999.90;999.90;;;20.00;99.90;;;;;;5032571;28;20024;-75
2023/08/11 06:32:56;;;;;;;1999.90;999.90;;;20.10;99.90;;;;;;5028495;28;20029;-71
2023/08/11 06:35:22;;;;;;;1999.90;999.90;;;20.10;99.90;;;;;;5012972;28;20476;-71
2023/08/11 06:37:48;;;;;;;1999.90;999.90;;;20.30;99.90;;;;;;5031763;28;20104;-71
2023/08/11 06:40:14;;;;;;;1999.90;999.90;;;20.40;99.90;;;;;;5030713;28;20113;-72
2023/08/11 06:42:40;;;;;;;1999.90;999.90;;;20.60;99.90;;;;;;5025142;28;20025;-71
2023/08/11 06:45:06;;;;;;;1999.90;999.90;;;20.50;99.90;;;;;;5034093;28;20056;-75
2023/08/11 06:47:34;;;;;;;1999.90;999.90;;;20.50;99.90;;;;;;5041071;28;20025;-71
2023/08/11 06:49:59;;;;;;;1999.90;999.90;;;20.50;99.90;;;;;;5012768;28;20025;-71
2023/08/11 06:52:26;;;;;;;1999.90;999.90;;;20.70;99.90;;;;;;5031200;28;20087;-71
2023/08/11 06:54:52;;;;;;;1999.90;999.90;;;20.70;99.90;;;;;;5031142;28;20052;-75
2023/08/11 06:57:21;;;;;;;1999.90;999.90;;;20.80;99.90;;;;;;5027284;28;20057;-74
2023/08/11 06:59:49;;;;;;;1999.90;999.90;;;20.80;99.90;;;;;;5024075;28;20100;-71
2023/08/11 07:02:14;;;;;;;1999.90;999.90;;;20.70;99.90;;;;;;5031038;28;20032;-71
2023/08/11 07:04:40;;;;;;;1999.90;999.90;;;20.60;99.90;;;;;;5030966;28;20025;-71
2023/08/11 07:07:06;;;;;;;1999.90;999.90;;;20.70;99.90;;;;;;5003842;28;20061;-71
2023/08/11 07:09:36;;;;;;;1999.90;999.90;;;21.00;99.90;;;;;;5031298;28;20356;-72
2023/08/11 07:12:01;;;;;;;1999.90;999.90;;;21.40;99.90;;;;;;5029077;28;20443;-75
2023/08/11 07:14:27;;;;;;;1999.90;999.90;;;21.60;99.90;;;;;;5027281;28;20034;-72
2023/08/11 07:16:52;;;;;;;1999.90;999.90;;;21.80;99.90;;;;;;5019682;28;20115;-72
2023/08/11 07:19:19;;;;;;;1999.90;999.90;;;21.90;99.90;;;;;;5029070;28;20025;-71
2023/08/11 07:21:45;;;;;;;1999.90;999.90;;;21.80;99.90;;;;;;5013789;28;20026;-74
2023/08/11 07:24:10;;;;;;;1999.90;999.90;;;21.70;99.90;;;;;;5030076;28;20044;-74
2023/08/11 07:26:36;;;;;;;1999.90;999.90;;;21.90;99.90;;;;;;5029303;28;20068;-72
2023/08/11 07:29:02;;;;;;;1999.90;999.90;;;22.30;99.90;;;;;;5034340;28;20048;-71
2023/08/11 07:31:28;;;;;;;1999.90;999.90;;;22.70;99.90;;;;;;5034435;28;20408;-71
2023/08/11 07:33:53;;;;;;;1999.90;999.90;;;22.70;99.90;;;;;;5030505;28;20108;-75
2023/08/11 07:36:20;;;;;;;1999.90;999.90;;;22.60;99.90;;;;;;5012081;28;20036;-75
2023/08/11 07:38:46;;;;;;;1999.90;999.90;;;22.70;99.90;;;;;;5014375;28;20439;-72
2023/08/11 07:41:12;;;;;;;1999.90;999.90;;;22.50;99.90;;;;;;5029810;28;20104;-72
2023/08/11 07:43:38;;;;;;;1999.90;999.90;;;22.60;99.90;;;;;;5030368;28;20128;-72
2023/08/11 07:46:04;;;;;;;1999.90;999.90;;;22.50;99.90;;;;;;5027258;28;20408;-71
2023/08/11 07:48:29;;;;;;;1999.90;999.90;;;22.50;99.90;;;;;;5011417;28;20036;-75
2023/08/11 07:50:55;;;;;;;1999.90;999.90;;;22.40;99.90;;;;;;5030563;28;20536;-72
2023/08/11 07:53:21;;;;;;;1999.90;999.90;;;22.30;99.90;;;;;;5027968;28;20025;-72
2023/08/11 07:55:46;;;;;;;1999.90;999.90;;;22.20;99.90;;;;;;5029989;28;20065;-72
2023/08/11 07:58:12;;;;;;;1999.90;999.90;;;22.10;99.90;;;;;;5014689;28;20061;-72
2023/08/11 08:00:38;;;;;;;1999.90;999.90;;;21.90;99.90;;;;;;5033519;28;20030;-76
2023/08/11 08:03:04;;;;;;;1999.90;999.90;;;21.80;99.90;;;;;;5033904;28;20037;-72
2023/08/11 08:05:30;;;;;;;1999.90;999.90;;;21.70;99.90;;;;;;5032016;28;20029;-72
2023/08/11 08:07:56;;;;;;;1999.90;999.90;;;21.80;99.90;;;;;;5032468;28;20033;-70
2023/08/11 08:10:22;;;;;;;1999.90;999.90;;;22.00;99.90;;;;;;5035383;28;20036;-72
2023/08/11 08:12:48;;;;;;;1999.90;999.90;;;22.30;99.90;;;;;;5033269;28;20077;-75
2023/08/11 08:15:14;;;;;;;1999.90;999.90;;;22.50;99.90;;;;;;5030373;28;20520;-72
2023/08/11 08:17:40;;;;;;;1999.90;999.90;;;22.80;99.90;;;;;;5030537;28;20107;-72
2023/08/11 08:20:13;;;;;;;1999.90;999.90;;;23.20;99.90;;;;;;5032371;28;20076;-72
2023/08/11 08:22:39;;;;;;;1999.90;999.90;;;23.20;99.90;;;;;;5038045;28;20021;-72
2023/08/11 08:25:06;;;;;;;1999.90;999.90;;;23.40;99.90;;;;;;5030709;28;20037;-72
2023/08/11 08:27:36;;;;;;;1999.90;999.90;;;23.80;99.90;;;;;;5031015;28;20040;-75
2023/08/11 08:30:02;;;;;;;1999.90;999.90;;;23.80;99.90;;;;;;5012802;28;20025;-75
2023/08/11 08:32:29;;;;;;;1999.90;999.90;;;23.80;99.90;;;;;;5032409;28;20397;-73
2023/08/11 08:34:55;;;;;;;1999.90;999.90;;;23.50;99.90;;;;;;5026435;28;20040;-72
2023/08/11 08:37:21;;;;;;;1999.90;999.90;;;23.70;99.90;;;;;;5033002;28;20389;-72
2023/08/11 08:39:47;;;;;;;1999.90;999.90;;;23.70;99.90;;;;;;5032454;28;20026;-73
2023/08/11 08:42:15;;;;;;;1999.90;999.90;;;23.70;99.90;;;;;;5029908;28;20034;-75
2023/08/11 08:44:42;;;;;;;1999.90;999.90;;;23.80;99.90;;;;;;5031225;28;20132;-72
2023/08/11 08:47:09;;;;;;;1999.90;999.90;;;23.70;99.90;;;;;;5031691;28;20096;-72
2023/08/11 08:49:38;;;;;;;1999.90;999.90;;;23.80;99.90;;;;;;5031553;28;20079;-72
2023/08/11 08:52:05;;;;;;;1999.90;999.90;;;23.80;99.90;;;;;;5032791;28;20056;-72
2023/08/11 08:54:31;;;;;;;1999.90;999.90;;;23.90;99.90;;;;;;5031981;28;20118;-72
2023/08/11 08:56:58;;;;;;;1999.90;999.90;;;23.80;99.90;;;;;;5017840;28;20031;-72
2023/08/11 08:59:24;;;;;;;1999.90;999.90;;;23.50;99.90;;;;;;5033927;28;20083;-72
2023/08/11 09:01:50;;;;;;;1999.90;999.90;;;23.60;99.90;;;;;;5033948;28;20053;-72
2023/08/11 09:04:20;;;;;;;1999.90;999.90;;;23.40;99.90;;;;;;5033087;28;20036;-76
2023/08/11 09:06:47;;;;;;;1999.90;999.90;;;23.30;99.90;;;;;;5031840;28;20033;-72
2023/08/11 09:09:12;;;;;;;1999.90;999.90;;;23.20;99.90;;;;;;5033906;28;20017;-72
2023/08/11 09:11:39;;;;;;;1999.90;999.90;;;23.50;99.90;;;;;;5031557;28;20646;-72
2023/08/11 09:14:06;;;;;;;1999.90;999.90;;;24.00;99.90;;;;;;5017395;28;20037;-72
2023/08/11 09:16:37;;;;;;;1999.90;999.90;;;24.20;99.90;;;;;;5024522;28;20029;-73
2023/08/11 09:19:09;;;;;;;1999.90;999.90;;;23.60;99.90;;;;;;5012932;28;20033;-73
2023/08/11 09:21:35;;;;;;;;;;;23.80;99.90;;;;;;5013475;28;20041;-75
2023/08/11 09:24:01;;;;;;;1999.90;999.90;;;24.40;99.90;;;;;;5031820;28;19909;-72
2023/08/11 09:26:27;;;;;;;1999.90;999.90;;;25.10;99.90;;;;;;5025902;28;20029;-72
2023/08/11 09:28:53;;;;;;;1999.90;999.90;;;25.30;99.90;;;;;;5027219;28;20060;-73
2023/08/11 09:31:25;;;;;;;1999.90;999.90;;;24.70;99.90;;;;;;5032169;28;20048;-72
2023/08/11 09:33:52;;;;;;;1999.90;999.90;;;24.80;99.90;;;;;;5024148;28;20105;-76
2023/08/11 09:36:19;;;;;;;1999.90;999.90;;;24.50;99.90;;;;;;5036935;28;20271;-73
2023/08/11 09:38:45;;;;;;;1999.90;999.90;;;24.30;99.90;;;;;;5032409;28;20028;-72
2023/08/11 09:41:12;;;;;;;1999.90;999.90;;;24.30;99.90;;;;;;5031637;28;20545;-72
2023/08/11 09:43:38;;;;;;;1999.90;999.90;;;24.10;99.90;;;;;;5021889;28;20136;-71
2023/08/11 09:46:03;;;;;;;1999.90;999.90;;;23.90;99.90;;;;;;5031146;28;20109;-76
2023/08/11 09:48:29;;;;;;;1999.90;999.90;;;23.60;99.90;;;;;;5034839;28;20025;-72
2023/08/11 09:50:57;;;;;;;1999.90;999.90;;;23.60;99.90;;;;;;5031438;28;20104;-72
2023/08/11 09:53:24;;;;;;;1999.90;999.90;;;23.70;99.90;;;;;;5023774;28;20032;-72
2023/08/11 09:55:54;;;;;;;1999.90;999.90;;;23.70;99.90;;;;;;5013650;28;20140;-72
2023/08/11 09:58:26;;;;;;;1999.90;999.90;;;23.70;99.90;;;;;;5030281;28;20568;-72
2023/08/11 10:00:54;;;;;;;1999.90;999.90;;;23.60;99.90;;;;;;5030760;28;20091;-75
2023/08/11 10:03:28;;;;;;;1999.90;999.90;;;23.80;99.90;;;;;;5023365;28;20093;-71
2023/08/11 10:05:58;;;;;;;1999.90;999.90;;;24.20;99.90;;;;;;5028855;28;20029;-72
2023/08/11 10:08:26;;;;;;;1999.90;999.90;;;24.00;99.90;;;;;;5031069;28;20488;-71
2023/08/11 10:10:52;;;;;;;1999.90;999.90;;;23.80;99.90;;;;;;5025274;28;20100;-76
2023/08/11 10:13:23;;;;;;;1999.90;999.90;;;23.50;99.90;;;;;;5031391;28;20100;-72
2023/08/11 10:15:51;;;;;;;1999.90;999.90;;;23.60;99.90;;;;;;5013507;28;20080;-72
2023/08/11 10:18:18;;;;;;;1999.90;999.90;;;23.60;99.90;;;;;;5013684;28;20061;-72
2023/08/11 10:20:46;;;;;;;1999.90;999.90;;;23.50;99.90;;;;;;5014540;28;20404;-72
2023/08/11 10:23:13;;;;;;;1999.90;999.90;;;23.80;99.90;;;;;;5031437;28;20017;-72
2023/08/11 10:25:39;;;;;;;1999.90;999.90;;;24.00;99.90;;;;;;5031268;28;20105;-72
2023/08/11 10:28:07;;;;;;;1999.90;999.90;;;23.80;99.90;;;;;;5023430;28;20025;-71
2023/08/11 10:30:33;;;;;;;1999.90;999.90;;;23.50;99.90;;;;;;5031798;28;20477;-72
2023/08/11 10:33:08;;;;;;;1999.90;999.90;;;23.50;99.90;;;;;;5032121;28;20033;-72
2023/08/11 10:35:56;;;;;;;1999.90;999.90;;;23.60;99.90;;;;;;5014590;28;20033;-76
2023/08/11 10:38:32;;;;;;;1999.90;999.90;;;23.60;99.90;;;;;;5032270;28;20478;-71
2023/08/11 10:41:09;;;;;;;1999.90;999.90;;;23.50;99.90;;;;;;5012181;28;20091;-72
2023/08/11 10:43:43;;;;;;;1999.90;999.90;;;23.40;99.90;;;;;;5024828;28;20443;-72
2023/08/11 10:46:24;;;;;;;1999.90;999.90;;;23.50;99.90;;;;;;5033828;28;20108;-71
2023/08/11 10:48:54;;;;;;;1999.90;999.90;;;23.50;99.90;;;;;;5028581;28;20454;-72
2023/08/11 10:51:24;;;;;;;1999.90;999.90;;;23.40;99.90;;;;;;5014710;28;20021;-76
2023/08/11 10:53:49;;;;;;;1999.90;999.90;;;23.30;99.90;;;;;;5031713;28;20025;-72
2023/08/11 10:56:15;;;;;;;1999.90;999.90;;;23.30;99.90;;;;;;5013898;28;20025;-72
2023/08/11 10:58:43;;;;;;;1999.90;999.90;;;23.20;99.90;;;;;;5031155;28;20025;-72
2023/08/11 11:01:09;;;;;;;1999.90;999.90;;;23.20;99.90;;;;;;5026822;28;20052;-71
2023/08/11 11:03:36;;;;;;;1999.90;999.90;;;23.50;99.90;;;;;;5029275;28;20029;-77
2023/08/11 11:06:04;;;;;;;1999.90;999.90;;;23.60;99.90;;;;;;5026429;28;20032;-76
2023/08/11 11:08:30;;;;;;;1999.90;999.90;;;23.90;99.90;;;;;;5010443;28;20124;-72
2023/08/11 11:10:56;;;;;;;1999.90;999.90;;;23.70;99.90;;;;;;5029802;28;20033;-72
2023/08/11 11:13:22;;;;;;;1999.90;999.90;;;23.80;99.90;;;;;;5028796;28;20428;-72
2023/08/11 11:15:47;;;;;;;1999.90;999.90;;;23.90;99.90;;;;;;5028918;28;20034;-72
2023/08/11 11:18:13;;;;;;;1999.90;999.90;;;24.40;99.90;;;;;;5027507;28;20108;-77
2023/08/11 11:20:38;;;;;;;1999.90;999.90;;;24.70;99.90;;;;;;5029830;28;20065;-72
2023/08/11 11:23:05;;;;;;;1999.90;999.90;;;25.00;99.90;;;;;;5026237;28;20555;-72
2023/08/11 11:25:30;;;;;;;1999.90;999.90;;;25.10;99.90;;;;;;5027889;28;20571;-72
2023/08/11 11:27:57;;;;;;;1999.90;999.90;;;24.70;99.90;;;;;;5029730;28;20033;-76
2023/08/11 11:30:23;;;;;;;1999.90;999.90;;;24.60;99.90;;;;;;5011510;28;20127;-76
2023/08/11 11:32:49;;;;;;;1999.90;999.90;;;24.20;99.90;;;;;;5029836;28;20536;-72
2023/08/11 11:35:15;;;;;;;1999.90;999.90;;;24.30;99.90;;;;;;5011723;28;20129;-72
2023/08/11 11:37:41;;;;;;;1999.90;999.90;;;24.40;99.90;;;;;;5029450;28;20026;-72
2023/08/11 11:40:09;;;;;;;1999.90;999.90;;;24.40;99.90;;;;;;5029827;28;20415;-72
2023/08/11 11:42:38;;;;;;;1999.90;999.90;;;24.80;99.90;;;;;;5029488;28;20032;-76
2023/08/11 11:45:05;;;;;;;1999.90;999.90;;;25.10;99.90;;;;;;5028960;28;20443;-72
2023/08/11 11:47:32;;;;;;;1999.90;999.90;;;25.50;99.90;;;;;;5028931;28;20033;-72
2023/08/11 11:50:04;;;;;;;1999.90;999.90;;;25.60;99.90;;;;;;5029190;28;20064;-72
2023/08/11 11:52:29;;;;;;;1999.90;999.90;;;25.60;99.90;;;;;;5029098;28;20017;-72
2023/08/11 11:54:55;;;;;;;1999.90;999.90;;;25.50;99.90;;;;;;5029318;28;20507;-72
2023/08/11 11:57:22;;;;;;;1999.90;999.90;;;25.40;99.90;;;;;;5012364;28;20033;-72